LiveATC.Net - Listen to live air traffic control over the Internet!

Airport/ARTCC Code
Frequency Search
(e.g., 124.400, 128.75)
Site-wide search
 


Browse Feeds
Top 50 Feeds
HF Oceanic Feeds
Coverage Map
Bad Weather Areas

LiveATC FAQ
Offer LiveATC feed
Contact LiveATC.net
Press Inquiries

LiveATC on iPhone
LiveATC on Android

Windows Phone
Windows 8/10

LiveATC Mobile
(Mobile browser)

ATC Audio Archives
Interesting Recordings

LiveATC Forums

Home Page
About LiveATC.net
Make a Donation
Terms of Use
Privacy Policy

Canadian Air Freqs

AIRMETs/SIGMETs

FAA Airport Status
Nat'l Airspace Status
Arrival Demand Charts


Server Software By:
Icecast.org
Liquidsoap


Current Potentially Bad Weather Airports
(updated every 30 minutes - sorted alphabetically by ICAO code)



This page lists LiveATC.net airport areas that may be interesting to listen to because of challenging flying (weather) conditions. Challenging weather conditions include low ceilings, limited visibility, high or gusty winds, or thunderstorms.

Updated: Sun Apr 18 10:40:01 UTC 2021
Click on airport name to go to that airport area's feeds.

CYEG Approach Edmonton International Airport (Edmonton, CA-AB)
WX MAP UNAVAILABLENearest METAR:
CYEG 181024Z 02012KT 4SM -SN OVC007 01/01 A3038 RMK ST8 SLP307
CYHZ Del/Gnd/Twr/App #1 Halifax International Airport (Halifax, CA-NS)
WX MAP UNAVAILABLENearest METAR:
CYHZ 181000Z 36008KT 2SM -DZ BR OVC003 02/02 A2950 RMK ST8 SLP995
CYOW Gnd/Twr/App Ottawa MacDonald Cartier International Airport (Ottawa, CA-ON)
cyowNearest METAR:
CYOW 181014Z 10003KT 15SM OVC007 04/03 A2975 RMK ST8 SLP080
CYQI Moncton Center Low/High Yarmouth Airport (Yarmouth, CA-NS)
WX MAP UNAVAILABLENearest METAR:
CYQI 181000Z 34015G21KT 12SM -DZ OVC009 03/03 A2960 RMK SF8 SLP026
CYQM App/Dep Greater Moncton International Airport (Moncton, CA-NB)
cyqmNearest METAR:
CYQM 181000Z 35010KT 2 1/2SM -RA BR OVC003 01/01 A2960 RMK SF8 SLP028
CYWG ATIS Winnipeg James Armstrong Richardson International Airport (Winnipeg, CA-MB)
WX MAP UNAVAILABLENearest METAR:
CYWG 181023Z 02024G31KT 15SM BKN013 OVC075 02/M00 A2990 RMK SC5AC3 SLP135
CYYT ATIS St. John's International Airport (St. John's, CA-NL)
WX MAP UNAVAILABLENearest METAR:
CYYT 181000Z 11016G24KT 1 1/2SM RA BR OVC003 02/02 A2982 RMK FG3ST5 /R13/ SLP104
KBOK CTAF Brookings Airport (Brookings, US-OR)
kbokNearest METAR:
KBOK 180956Z AUTO 12004KT 1/4SM -RA FG OVC002 07/07 A3020 RMK AO2 SLP229 P0000 T00670067
KBOW AWOS Bartow Municipal Airport (Bartow, US-FL)
kbowNearest METAR:
KBOW 181015Z AUTO 20006KT 1 1/4SM BR OVC002 22/22 A2991 RMK AO2
KCRP App/Dep Corpus Christi International Airport (Corpus Christi, US-TX)
kcrpNearest METAR:
KCRP 180951Z 01011KT 10SM BKN080 13/08 A3008 RMK AO2 LTG DSNT S AND SW SLP184 T01330078 $
KCRQ Tower Mc Clellan-Palomar Airport (Carlsbad, US-CA)
kcrqNearest METAR:
KCRQ 180953Z AUTO 00000KT 7SM OVC006 14/12 A2996 RMK AO2 SLP144 T01390117
KGIF ASOS Winter Haven's Gilbert Airport (Winter Haven, US-FL)
kgifNearest METAR:
KGIF 181009Z AUTO 21006KT 4SM BR OVC007 23/22 A2991 RMK AO2 CIG 006V011 T02280217
KHUL/KPQI/ZBW01/15 Houlton International Airport (Houlton, US-ME)
khulNearest METAR:
KHUL 180953Z AUTO 01006KT 4SM -SN BR BKN009 OVC014 01/M01 A2971 RMK AO2 SNB26 CIG 007V011 SLP068 P0000 T00061006
Sun 'n Fun Air Show/Dep/Misc Lakeland Linder International Airport (Lakeland, US-FL)
klalNearest METAR:
KLAL 180950Z 21005KT 1/2SM FG OVC003 22/22 A2991
KLUK Twr/App/Dep Cincinnati Municipal Airport-Lunken Field (Cincinnati, US-OH)
klukNearest METAR:
KLUK 180953Z AUTO 00000KT M1/4SM R21L/0800V1200FT FG VV001 03/03 A2994 RMK AO2 SLP139 T00280028
KMRY Del/Gnd/Twr Monterey Peninsula Airport (Monterey, US-CA)
kmryNearest METAR:
KMRY 181009Z AUTO 00000KT 1 3/4SM R10R/5000VP6000FT BR OVC001 10/08 A3010 RMK AO2 T01000083
KMWA Gnd/Twr/CTAF Williamson County Regional Airport (Marion, US-IL)
kmwaNearest METAR:
KMWA 181015Z AUTO 00000KT 1 1/2SM BR SCT100 05/05 A2999 RMK AO2 T00460046
KMYF Tower Montgomery Field Airport (San Diego, US-CA)
kmyfNearest METAR:
KMYF 180953Z AUTO 34006KT 8SM OVC008 14/12 A2997 RMK AO2 SLP146 T01440117
KOFF Gnd/Twr/App/ZMP Offutt Air Force Base (Omaha, US-NE)
koffNearest METAR:
KOFF 180956Z 30005KT 10SM OVC075 07/02 A3004 RMK AO2A SLP176 ALSTG/SLP ESTMD RVRNO $
KOTH ATIS/AWOS Southwest Oregon Regional Airport (North Bend, US-OR)
kothNearest METAR:
KOTH 181004Z AUTO 28006KT 1/2SM FG OVC002 07/07 A3022 RMK AO2 RVRNO
KPKB Gnd/Twr/Unicom Mid-Ohio Valley Regional Airport (Parkersburg, US-WV)
kpkbNearest METAR:
KPKB 181024Z AUTO 00000KT 1/2SM FG FEW002 OVC080 07/06 A2989 RMK AO2 T00720061
KRAS CTAF Mustang Beach Airport (Port Aransas, US-TX)
krasNearest METAR:
KRAS 181015Z AUTO 01014KT 10SM OVC085 14/09 A3008 RMK AO2 LTG DSNT SE AND S T01410090
KSBP App/Dep San Luis County Regional Airport (San Luis Obispo, US-CA)
ksbpNearest METAR:
KSBP 181012Z AUTO 00000KT 1/4SM FG VV002 09/09 A3006 RMK AO2 T00890089
KWVI CTAF/NORCAL App Watsonville Municipal Airport (Watsonville, US-CA)
kwviNearest METAR:
KWVI 181010Z AUTO 00000KT 1/4SM FG VV002 09/09 A3010 RMK AO2 T00890089
KZZV AWOS Zanesville Municipal Airport (Zanesville, US-OH)
WX MAP UNAVAILABLENearest METAR:
KZZV 180953Z AUTO 00000KT 1/4SM FG VV001 04/04 A2990 RMK AO2 SLP126 T00390039
LBBG Twr/App Burgas International Airport (Burgas, Bulgaria)
WX MAP UNAVAILABLENearest METAR:
LBBG 181030Z 08009KT 9000 OVC007 10/09 Q1014 NOSIG
UNNT Gnd/Twr/App/Radar/Misc Tolmachevo Airport (Novosibirsk, Russia)
WX MAP UNAVAILABLENearest METAR:
UNNT 181000Z 19005MPS 9999 -SHRA OVC029CB 05/01 Q1011 R25/290155 R16/290155 NOSIG RMK QFE748/0998
URKK Gnd/Twr/App Pashkovskiy General Airport (Krasnodar, Russia)
WX MAP UNAVAILABLENearest METAR:
URKK 181000Z 10002MPS 010V120 9999 -SHRA SCT012 BKN028CB 13/10 Q1016 R05R/290060 TEMPO 1000 TSRA SCT005 BKN016CB RMK QFE759
USTR Gnd/Twr/App Roshchino International Airport (Tyumen, Russia)
WX MAP UNAVAILABLENearest METAR:
USTR 181000Z 01011MPS 9999 FEW046CB 03/M15 Q1023 R03/CLRD65 R30/CLRD65 TEMPO 01014G22MPS 1000 SHSNRA VV004